createdAt,value
2024-01-28T00:01:19.025Z,2.73
2024-01-28T00:03:45.723Z,2.65
2024-01-28T00:06:12.393Z,2.64
2024-01-28T00:08:39.045Z,2.60
2024-01-28T00:11:05.687Z,2.51
2024-01-28T00:13:35.403Z,2.48
2024-01-28T00:16:02.385Z,2.44
2024-01-28T00:18:29.155Z,2.42
2024-01-28T00:20:55.756Z,2.42
2024-01-28T00:23:22.247Z,2.49
2024-01-28T00:25:48.690Z,2.41
2024-01-28T00:28:15.195Z,2.36
2024-01-28T00:30:42.190Z,2.43
2024-01-28T00:33:09.018Z,2.48
2024-01-28T00:35:35.850Z,2.43
2024-01-28T00:38:03.979Z,2.31
2024-01-28T00:40:30.832Z,2.27
2024-01-28T00:42:57.296Z,2.29
2024-01-28T00:45:23.740Z,2.35
2024-01-28T00:47:50.529Z,2.38
2024-01-28T00:50:17.124Z,2.43
2024-01-28T00:52:45.231Z,2.38
2024-01-28T00:55:12.167Z,2.28
2024-01-28T00:57:38.853Z,2.14
2024-01-28T01:00:06.479Z,2.00
2024-01-28T01:02:33.050Z,1.89
2024-01-28T01:04:59.694Z,1.85
2024-01-28T01:07:27.904Z,1.87
2024-01-28T01:09:54.505Z,1.90
2024-01-28T01:12:21.501Z,1.95
2024-01-28T01:14:47.996Z,1.94
2024-01-28T01:17:14.471Z,1.98
2024-01-28T01:19:41.096Z,2.04
2024-01-28T01:22:08.042Z,1.99
2024-01-28T01:24:34.672Z,1.91
2024-01-28T01:27:01.156Z,1.97
2024-01-28T01:29:27.678Z,2.02
2024-01-28T01:31:56.114Z,1.96
2024-01-28T01:34:22.744Z,1.86
2024-01-28T01:36:49.430Z,1.84
2024-01-28T01:39:17.908Z,1.82
2024-01-28T01:41:48.040Z,1.81
2024-01-28T01:44:14.951Z,1.81
2024-01-28T01:46:43.649Z,1.90
2024-01-28T01:49:11.604Z,1.89
2024-01-28T01:51:38.957Z,1.83
2024-01-28T01:54:05.890Z,1.80
2024-01-28T01:56:35.655Z,1.81
2024-01-28T01:59:04.233Z,1.87
2024-01-28T02:01:32.202Z,1.88
2024-01-28T02:04:00.241Z,1.90
2024-01-28T02:06:28.509Z,1.92
2024-01-28T02:08:56.171Z,1.89
2024-01-28T02:11:23.854Z,1.94
2024-01-28T02:13:50.701Z,1.96
2024-01-28T02:16:17.167Z,1.95
2024-01-28T02:18:44.023Z,1.90
2024-01-28T02:21:10.715Z,1.80
2024-01-28T02:23:37.384Z,1.73
2024-01-28T02:26:03.910Z,1.65
2024-01-28T02:28:30.367Z,1.56
2024-01-28T02:30:56.831Z,1.53
2024-01-28T02:33:23.802Z,1.52
2024-01-28T02:35:50.390Z,1.53
2024-01-28T02:38:16.878Z,1.51
2024-01-28T02:40:44.593Z,1.56
2024-01-28T02:43:11.333Z,1.67
2024-01-28T02:45:37.899Z,1.81
2024-01-28T02:48:04.685Z,1.79
2024-01-28T02:50:31.195Z,1.81
2024-01-28T02:52:57.840Z,1.84
2024-01-28T02:55:24.270Z,1.88
2024-01-28T02:57:50.906Z,1.90
2024-01-28T03:00:18.107Z,1.94
2024-01-28T03:02:44.617Z,1.96
2024-01-28T03:05:11.915Z,1.99
2024-01-28T03:07:38.792Z,1.95
2024-01-28T03:10:06.305Z,1.94
2024-01-28T03:12:32.882Z,1.97
2024-01-28T03:14:59.360Z,1.96
2024-01-28T03:17:25.823Z,2.00
2024-01-28T03:19:52.298Z,1.97
2024-01-28T03:22:18.833Z,1.94
2024-01-28T03:24:45.435Z,1.88
2024-01-28T03:27:12.092Z,1.86
2024-01-28T03:29:38.635Z,1.79
2024-01-28T03:32:05.812Z,1.77
2024-01-28T03:34:32.493Z,1.78
2024-01-28T03:36:59.157Z,1.84
2024-01-28T03:39:25.704Z,1.90
2024-01-28T03:41:52.234Z,1.94
2024-01-28T03:44:23.867Z,1.90
2024-01-28T03:46:50.982Z,1.87
2024-01-28T03:49:17.563Z,1.86
2024-01-28T03:51:44.237Z,1.90
2024-01-28T03:54:10.845Z,1.90
2024-01-28T03:56:38.530Z,1.88
2024-01-28T03:59:05.065Z,1.87
2024-01-28T04:01:33.109Z,1.86
2024-01-28T04:04:00.193Z,1.78
2024-01-28T04:06:27.244Z,1.67
2024-01-28T04:08:56.148Z,1.60
2024-01-28T04:11:26.820Z,1.55
2024-01-28T04:13:57.034Z,1.53
2024-01-28T04:16:24.228Z,1.47
2024-01-28T04:18:51.495Z,1.45
2024-01-28T04:21:18.279Z,1.45
2024-01-28T04:23:47.761Z,1.52
2024-01-28T04:26:14.570Z,1.52
2024-01-28T04:28:42.097Z,1.48
2024-01-28T04:31:08.932Z,1.47
2024-01-28T04:33:36.016Z,1.50
2024-01-28T04:36:02.653Z,1.55
2024-01-28T04:38:29.384Z,1.56
2024-01-28T04:40:55.880Z,1.57
2024-01-28T04:43:22.317Z,1.61
2024-01-28T04:45:49.630Z,1.59
2024-01-28T04:48:17.049Z,1.62
2024-01-28T04:50:43.697Z,1.62
2024-01-28T04:53:10.168Z,1.63
2024-01-28T04:55:36.749Z,1.65
2024-01-28T04:58:03.804Z,1.70
2024-01-28T05:00:30.428Z,1.67
2024-01-28T05:02:57.946Z,1.70
2024-01-28T05:05:24.714Z,1.73
2024-01-28T05:07:51.336Z,1.70
2024-01-28T05:10:18.015Z,1.70
2024-01-28T05:12:46.538Z,1.66
2024-01-28T05:15:17.559Z,1.65
2024-01-28T05:17:45.738Z,1.66
2024-01-28T05:20:13.224Z,1.65
2024-01-28T05:22:39.965Z,1.57
2024-01-28T05:25:07.159Z,1.58
2024-01-28T05:27:34.154Z,1.62
2024-01-28T05:30:00.722Z,1.63
2024-01-28T05:32:27.678Z,1.71
2024-01-28T05:34:56.376Z,1.81
2024-01-28T05:37:23.181Z,1.87
2024-01-28T05:39:49.725Z,1.87
2024-01-28T05:42:16.327Z,1.91
2024-01-28T05:44:42.829Z,1.93
2024-01-28T05:47:09.342Z,1.96
2024-01-28T05:49:35.868Z,1.98
2024-01-28T05:52:02.422Z,2.01
2024-01-28T05:54:31.294Z,2.02
2024-01-28T05:56:57.753Z,2.02
2024-01-28T05:59:24.233Z,2.06
2024-01-28T06:01:51.017Z,2.04
2024-01-28T06:04:17.686Z,2.01
2024-01-28T06:06:44.195Z,2.04
2024-01-28T06:09:11.583Z,2.01
2024-01-28T06:11:38.103Z,1.96
2024-01-28T06:14:04.563Z,1.97
2024-01-28T06:16:30.997Z,2.02
2024-01-28T06:18:57.986Z,2.03
2024-01-28T06:21:24.543Z,2.03
2024-01-28T06:23:51.187Z,2.07
2024-01-28T06:26:19.193Z,2.11
2024-01-28T06:28:49.565Z,2.10
2024-01-28T06:31:16.529Z,2.10
2024-01-28T06:33:44.431Z,2.11
2024-01-28T06:36:19.349Z,2.10
2024-01-28T06:38:45.832Z,2.06
2024-01-28T06:41:12.245Z,2.03
2024-01-28T06:43:38.647Z,1.98
2024-01-28T06:46:05.964Z,1.97
2024-01-28T06:48:32.896Z,1.94
2024-01-28T06:50:59.426Z,1.92
2024-01-28T06:53:25.838Z,1.92
2024-01-28T06:55:52.296Z,1.94
2024-01-28T06:58:18.849Z,1.97
2024-01-28T07:00:45.413Z,1.98
2024-01-28T07:03:11.993Z,2.01
2024-01-28T07:05:39.487Z,2.02
2024-01-28T07:08:08.842Z,2.03
2024-01-28T07:10:35.232Z,2.08
2024-01-28T07:13:04.948Z,2.13
2024-01-28T07:15:31.753Z,2.15
2024-01-28T07:17:58.191Z,2.18
2024-01-28T07:20:25.039Z,2.20
2024-01-28T07:22:51.487Z,2.24
2024-01-28T07:25:18.291Z,2.29
2024-01-28T07:27:44.918Z,2.30
2024-01-28T07:30:11.573Z,2.34
2024-01-28T07:32:38.019Z,2.35
2024-01-28T07:35:05.552Z,2.34
2024-01-28T07:37:32.045Z,2.30
2024-01-28T07:39:58.496Z,2.26
2024-01-28T07:42:25.044Z,2.18
2024-01-28T07:44:51.503Z,2.14
2024-01-28T07:47:17.947Z,2.17
2024-01-28T07:49:44.428Z,2.18
2024-01-28T07:52:10.919Z,2.19
2024-01-28T07:54:37.582Z,2.29
2024-01-28T07:57:04.245Z,2.37
2024-01-28T07:59:30.750Z,2.40
2024-01-28T08:01:57.339Z,2.41
2024-01-28T08:04:23.933Z,2.45
2024-01-28T08:06:50.559Z,2.49
2024-01-28T08:09:17.482Z,2.50
2024-01-28T08:11:43.951Z,2.49
2024-01-28T08:14:10.808Z,2.48
2024-01-28T08:16:37.421Z,2.54
2024-01-28T08:19:05.932Z,2.58
2024-01-28T08:21:32.916Z,2.64
2024-01-28T08:23:59.507Z,2.68
2024-01-28T08:26:25.954Z,2.65
2024-01-28T08:28:53.122Z,2.60
2024-01-28T08:31:20.015Z,2.56
2024-01-28T08:33:46.533Z,2.57
2024-01-28T08:36:13.122Z,2.63
2024-01-28T08:38:39.552Z,2.75
2024-01-28T08:41:06.049Z,2.92
2024-01-28T08:43:32.537Z,3.08
2024-01-28T08:46:02.449Z,3.22
2024-01-28T08:48:29.040Z,3.33
2024-01-28T08:50:55.536Z,3.45
2024-01-28T08:53:22.183Z,3.55
2024-01-28T08:55:48.621Z,3.74
2024-01-28T08:58:15.206Z,3.82
2024-01-28T09:00:41.702Z,4.03
2024-01-28T09:03:08.266Z,4.12
2024-01-28T09:05:34.820Z,4.23
2024-01-28T09:08:01.829Z,4.43
2024-01-28T09:10:28.290Z,4.59
2024-01-28T09:12:54.810Z,4.75
2024-01-28T09:15:21.483Z,4.89
2024-01-28T09:17:48.001Z,4.94
2024-01-28T09:20:14.856Z,5.05
2024-01-28T09:22:41.537Z,5.22
2024-01-28T09:25:08.490Z,5.50
2024-01-28T09:27:35.009Z,5.71
2024-01-28T09:30:02.732Z,5.85
2024-01-28T09:32:29.357Z,5.93
2024-01-28T09:34:55.870Z,6.09
2024-01-28T09:37:22.490Z,6.29
2024-01-28T09:39:49.175Z,6.49
2024-01-28T09:42:24.681Z,6.59
2024-01-28T09:44:51.502Z,6.69
2024-01-28T09:47:21.620Z,6.89
2024-01-28T09:49:48.825Z,6.98
2024-01-28T09:52:15.740Z,6.96
2024-01-28T09:54:48.664Z,7.02
2024-01-28T09:57:16.564Z,7.34
2024-01-28T09:59:44.439Z,7.60
2024-01-28T10:02:13.115Z,7.81
2024-01-28T10:04:41.447Z,7.68
2024-01-28T10:07:10.755Z,7.75
2024-01-28T10:09:38.231Z,7.85
2024-01-28T10:12:05.243Z,7.94
2024-01-28T10:14:31.905Z,7.96
2024-01-28T10:16:58.685Z,8.02
2024-01-28T10:19:25.545Z,8.17
2024-01-28T10:21:52.644Z,8.03
2024-01-28T10:24:19.908Z,7.99
2024-01-28T10:26:46.499Z,8.11
2024-01-28T10:29:14.317Z,8.08
2024-01-28T10:31:41.457Z,8.04
2024-01-28T10:34:09.772Z,7.99
2024-01-28T10:36:37.391Z,8.09
2024-01-28T10:39:05.760Z,8.34
2024-01-28T10:41:33.675Z,8.45
2024-01-28T10:44:09.300Z,8.40
2024-01-28T10:46:40.654Z,8.68
2024-01-28T10:49:09.434Z,8.93
2024-01-28T10:51:37.333Z,9.32
2024-01-28T10:54:11.037Z,9.37
2024-01-28T10:56:39.118Z,9.45
2024-01-28T10:59:05.904Z,9.47
2024-01-28T11:01:34.720Z,9.67
2024-01-28T11:04:03.542Z,9.86
2024-01-28T11:06:33.450Z,9.94
2024-01-28T11:09:01.261Z,10.10
2024-01-28T11:11:28.336Z,10.07
2024-01-28T11:13:56.834Z,10.07
2024-01-28T11:16:23.406Z,10.03
2024-01-28T11:19:08.645Z,10.26
2024-01-28T11:21:35.977Z,10.43
2024-01-28T11:24:09.945Z,10.67
2024-01-28T11:26:42.523Z,10.74
2024-01-28T11:29:11.885Z,10.81
2024-01-28T11:31:42.837Z,11.14
2024-01-28T11:34:23.668Z,11.31
2024-01-28T11:36:53.528Z,11.22
2024-01-28T11:39:45.738Z,11.23
2024-01-28T11:42:12.911Z,10.99
2024-01-28T11:44:42.839Z,11.08
2024-01-28T11:47:14.215Z,11.12
2024-01-28T11:49:43.274Z,11.22
2024-01-28T11:52:10.277Z,11.46
2024-01-28T11:54:37.679Z,11.68
2024-01-28T11:57:06.720Z,11.70
2024-01-28T11:59:35.117Z,11.80
2024-01-28T12:02:05.292Z,11.80
2024-01-28T12:04:32.721Z,11.82
2024-01-28T12:07:00.886Z,12.03
2024-01-28T12:09:30.993Z,12.11
2024-01-28T12:11:57.779Z,12.20
2024-01-28T12:14:24.337Z,11.86
2024-01-28T12:16:50.825Z,12.00
2024-01-28T12:19:19.516Z,12.14
2024-01-28T12:21:48.114Z,12.15
2024-01-28T12:24:14.663Z,12.11
2024-01-28T12:26:44.642Z,12.11
2024-01-28T12:29:11.180Z,12.14
2024-01-28T12:31:37.629Z,12.16
2024-01-28T12:34:14.606Z,12.12
2024-01-28T12:36:41.196Z,12.08
2024-01-28T12:39:07.906Z,12.12
2024-01-28T12:41:34.515Z,12.23
2024-01-28T12:44:01.015Z,12.41
2024-01-28T12:46:27.599Z,12.52
2024-01-28T12:48:54.503Z,12.51
2024-01-28T12:51:20.968Z,12.51
2024-01-28T12:53:52.234Z,12.46
2024-01-28T12:56:18.996Z,12.52
2024-01-28T12:58:45.511Z,12.60
2024-01-28T13:01:12.211Z,12.73
2024-01-28T13:03:38.819Z,12.81
2024-01-28T13:06:06.517Z,12.83
2024-01-28T13:08:33.031Z,12.90
2024-01-28T13:11:02.383Z,12.93
2024-01-28T13:13:29.511Z,12.94
2024-01-28T13:15:56.054Z,12.83
2024-01-28T13:18:30.353Z,12.75
2024-01-28T13:21:01.697Z,12.89
2024-01-28T13:23:28.226Z,12.99
2024-01-28T13:25:54.863Z,12.92
2024-01-28T13:28:21.418Z,13.04
2024-01-28T13:30:47.935Z,13.01
2024-01-28T13:33:14.590Z,13.04
2024-01-28T13:35:41.125Z,13.13
2024-01-28T13:38:07.729Z,13.14
2024-01-28T13:40:34.736Z,13.26
2024-01-28T13:43:01.206Z,13.25
2024-01-28T13:45:27.673Z,13.18
2024-01-28T13:47:54.202Z,13.19
2024-01-28T13:50:20.716Z,13.24
2024-01-28T13:52:47.156Z,13.43
2024-01-28T13:55:13.648Z,13.64
2024-01-28T13:57:40.268Z,13.69
2024-01-28T14:00:10.968Z,13.78
2024-01-28T14:02:40.056Z,13.87
2024-01-28T14:05:08.554Z,13.84
2024-01-28T14:07:35.963Z,13.80
2024-01-28T14:10:03.654Z,13.51
2024-01-28T14:12:30.759Z,13.22
2024-01-28T14:14:57.259Z,13.02
2024-01-28T14:17:23.851Z,13.02
2024-01-28T14:19:50.392Z,13.19
2024-01-28T14:22:16.849Z,13.19
2024-01-28T14:24:43.389Z,13.23
2024-01-28T14:27:10.274Z,13.22
2024-01-28T14:29:36.815Z,13.24
2024-01-28T14:32:03.753Z,13.12
2024-01-28T14:34:30.342Z,12.98
2024-01-28T14:36:57.189Z,12.96
2024-01-28T14:39:23.866Z,12.74
2024-01-28T14:41:51.868Z,12.60
2024-01-28T14:44:18.583Z,12.47
2024-01-28T14:46:45.117Z,12.29
2024-01-28T14:49:11.800Z,12.22
2024-01-28T14:51:40.427Z,12.18
2024-01-28T14:54:07.186Z,12.29
2024-01-28T14:56:33.844Z,12.37
2024-01-28T14:59:00.429Z,12.36
2024-01-28T15:01:27.099Z,12.36
2024-01-28T15:03:53.763Z,12.20
2024-01-28T15:06:20.682Z,11.99
2024-01-28T15:08:47.241Z,11.86
2024-01-28T15:11:13.772Z,11.89
2024-01-28T15:13:40.202Z,11.86
2024-01-28T15:16:07.826Z,11.71
2024-01-28T15:18:34.683Z,11.45
2024-01-28T15:21:01.644Z,11.26
2024-01-28T15:23:28.260Z,11.13
2024-01-28T15:25:54.671Z,11.00
2024-01-28T15:28:25.341Z,10.82
2024-01-28T15:30:58.837Z,10.63
2024-01-28T15:33:26.595Z,10.48
2024-01-28T15:35:54.314Z,10.39
2024-01-28T15:38:21.135Z,10.25
2024-01-28T15:40:47.729Z,10.06
2024-01-28T15:43:14.375Z,9.91
2024-01-28T15:45:40.947Z,9.76
2024-01-28T15:48:10.529Z,9.61
2024-01-28T15:50:37.771Z,9.52
2024-01-28T15:53:04.439Z,9.41
2024-01-28T15:55:32.195Z,9.31
2024-01-28T15:58:00.087Z,9.22
2024-01-28T16:00:26.770Z,9.12
2024-01-28T16:02:53.345Z,9.05
2024-01-28T16:05:19.897Z,9.00
2024-01-28T16:07:46.879Z,8.97
2024-01-28T16:10:13.907Z,8.95
2024-01-28T16:12:40.924Z,8.92
2024-01-28T16:15:08.216Z,8.88
2024-01-28T16:17:36.333Z,8.83
2024-01-28T16:20:04.723Z,8.76
2024-01-28T16:22:31.259Z,8.67
2024-01-28T16:24:57.792Z,8.60
2024-01-28T16:27:24.454Z,8.52
2024-01-28T16:29:50.918Z,8.45
2024-01-28T16:32:17.394Z,8.40
2024-01-28T16:34:44.041Z,8.31
2024-01-28T16:37:10.637Z,8.24
2024-01-28T16:39:37.206Z,8.14
2024-01-28T16:42:03.827Z,8.06
2024-01-28T16:44:30.255Z,7.94
2024-01-28T16:46:56.776Z,7.90
2024-01-28T16:49:25.383Z,7.87
2024-01-28T16:51:52.322Z,7.79
2024-01-28T16:54:18.999Z,7.74
2024-01-28T16:56:45.588Z,7.61
2024-01-28T16:59:12.492Z,7.46
2024-01-28T17:01:39.017Z,7.36
2024-01-28T17:04:05.567Z,7.22
2024-01-28T17:06:32.116Z,7.16
2024-01-28T17:08:58.633Z,7.11
2024-01-28T17:11:25.183Z,7.18
2024-01-28T17:13:51.702Z,7.21
2024-01-28T17:16:18.553Z,7.27
2024-01-28T17:18:45.771Z,7.32
2024-01-28T17:21:12.396Z,7.39
2024-01-28T17:23:38.825Z,7.46
2024-01-28T17:26:05.514Z,7.55
2024-01-28T17:28:31.948Z,7.61
2024-01-28T17:31:00.151Z,7.53
2024-01-28T17:33:27.076Z,7.42
2024-01-28T17:35:53.726Z,7.29
2024-01-28T17:38:20.519Z,7.11
2024-01-28T17:40:47.033Z,7.05
2024-01-28T17:43:13.733Z,6.96
2024-01-28T17:45:40.262Z,6.93
2024-01-28T17:48:07.059Z,6.92
2024-01-28T17:50:33.577Z,6.98
2024-01-28T17:53:01.385Z,7.04
2024-01-28T17:55:27.947Z,7.08
2024-01-28T17:57:54.475Z,7.08
2024-01-28T18:00:21.116Z,7.08
2024-01-28T18:02:47.756Z,7.04
2024-01-28T18:05:14.430Z,7.01
2024-01-28T18:07:42.755Z,6.93
2024-01-28T18:10:09.560Z,6.79
2024-01-28T18:12:37.439Z,6.66
2024-01-28T18:15:04.386Z,6.54
2024-01-28T18:17:31.007Z,6.45
2024-01-28T18:19:57.556Z,6.43
2024-01-28T18:22:24.045Z,6.42
2024-01-28T18:24:51.185Z,6.46
2024-01-28T18:27:17.889Z,6.51
2024-01-28T18:29:44.840Z,6.59
2024-01-28T18:32:11.347Z,6.64
2024-01-28T18:34:38.021Z,6.75
2024-01-28T18:37:05.251Z,6.90
2024-01-28T18:39:32.368Z,6.93
2024-01-28T18:42:00.294Z,6.95
2024-01-28T18:44:27.230Z,6.95
2024-01-28T18:46:53.686Z,6.88
2024-01-28T18:49:22.759Z,6.88
2024-01-28T18:51:49.351Z,6.93
2024-01-28T18:54:15.848Z,6.97
2024-01-28T18:56:42.416Z,7.00
2024-01-28T18:59:10.185Z,7.06
2024-01-28T19:01:37.685Z,7.14
2024-01-28T19:04:04.564Z,7.22
2024-01-28T19:06:31.784Z,7.23
2024-01-28T19:08:59.485Z,7.19
2024-01-28T19:11:26.373Z,7.22
2024-01-28T19:13:53.181Z,7.26
2024-01-28T19:16:19.919Z,7.27
2024-01-28T19:18:47.836Z,7.33
2024-01-28T19:21:15.467Z,7.38
2024-01-28T19:23:43.891Z,7.39
2024-01-28T19:26:12.357Z,7.42
2024-01-28T19:28:39.208Z,7.37
2024-01-28T19:31:05.809Z,7.34
2024-01-28T19:33:34.946Z,7.25
2024-01-28T19:36:02.019Z,7.20
2024-01-28T19:38:28.851Z,7.22
2024-01-28T19:40:55.514Z,7.16
2024-01-28T19:43:22.043Z,7.17
2024-01-28T19:45:48.661Z,7.19
2024-01-28T19:48:16.475Z,7.08
2024-01-28T19:50:43.203Z,7.05
2024-01-28T19:53:09.708Z,7.01
2024-01-28T19:55:36.889Z,6.91
2024-01-28T19:58:04.932Z,6.81
2024-01-28T20:00:31.797Z,6.74
2024-01-28T20:02:58.923Z,6.75
2024-01-28T20:05:25.578Z,6.72
2024-01-28T20:07:52.087Z,6.73
2024-01-28T20:10:18.806Z,6.77
2024-01-28T20:12:45.387Z,6.73
2024-01-28T20:15:11.895Z,6.75
2024-01-28T20:17:38.449Z,6.80
2024-01-28T20:20:05.871Z,6.78
2024-01-28T20:22:32.502Z,6.73
2024-01-28T20:24:59.992Z,6.83
2024-01-28T20:27:26.780Z,6.86
2024-01-28T20:29:53.564Z,6.86
2024-01-28T20:32:20.073Z,6.88
2024-01-28T20:34:46.778Z,6.80
2024-01-28T20:37:13.360Z,6.78
2024-01-28T20:39:39.912Z,6.80
2024-01-28T20:42:06.891Z,6.85
2024-01-28T20:44:33.763Z,6.85
2024-01-28T20:47:01.550Z,6.83
2024-01-28T20:49:28.101Z,6.86
2024-01-28T20:51:54.629Z,6.92
2024-01-28T20:54:21.233Z,7.04
2024-01-28T20:56:47.846Z,7.15
2024-01-28T20:59:14.428Z,7.28
2024-01-28T21:01:40.921Z,7.35
2024-01-28T21:04:07.441Z,7.40
2024-01-28T21:06:34.054Z,7.42
2024-01-28T21:09:00.744Z,7.45
2024-01-28T21:11:27.230Z,7.49
2024-01-28T21:13:53.773Z,7.54
2024-01-28T21:16:20.188Z,7.53
2024-01-28T21:18:46.780Z,7.54
2024-01-28T21:21:13.325Z,7.55
2024-01-28T21:23:40.063Z,7.55
2024-01-28T21:26:06.594Z,7.57
2024-01-28T21:28:33.113Z,7.54
2024-01-28T21:30:59.846Z,7.55
2024-01-28T21:33:26.674Z,7.60
2024-01-28T21:35:53.342Z,7.61
2024-01-28T21:38:19.870Z,7.59
2024-01-28T21:40:46.355Z,7.53
2024-01-28T21:43:15.183Z,7.53
2024-01-28T21:45:41.902Z,7.52
2024-01-28T21:48:08.676Z,7.53
2024-01-28T21:50:35.199Z,7.56
2024-01-28T21:53:02.305Z,7.58
2024-01-28T21:55:28.801Z,7.61
2024-01-28T21:57:55.331Z,7.55
2024-01-28T22:00:21.972Z,7.56
2024-01-28T22:02:48.590Z,7.52
2024-01-28T22:05:15.599Z,7.55
2024-01-28T22:07:42.521Z,7.53
2024-01-28T22:10:12.046Z,7.52
2024-01-28T22:12:38.579Z,7.55
2024-01-28T22:15:05.600Z,7.55
2024-01-28T22:17:32.088Z,7.57
2024-01-28T22:19:58.577Z,7.55
2024-01-28T22:22:25.063Z,7.52
2024-01-28T22:24:52.265Z,7.48
2024-01-28T22:27:19.720Z,7.43
2024-01-28T22:29:46.187Z,7.42
2024-01-28T22:32:13.272Z,7.38
2024-01-28T22:34:43.746Z,7.43
2024-01-28T22:37:10.372Z,7.39
2024-01-28T22:39:36.999Z,7.32
2024-01-28T22:42:03.631Z,7.35
2024-01-28T22:44:30.150Z,7.42
2024-01-28T22:46:56.583Z,7.45
2024-01-28T22:49:23.319Z,7.49
2024-01-28T22:51:50.010Z,7.51
2024-01-28T22:54:16.509Z,7.50
2024-01-28T22:56:42.930Z,7.51
2024-01-28T22:59:10.853Z,7.52
2024-01-28T23:01:37.314Z,7.58
2024-01-28T23:04:04.253Z,7.59
2024-01-28T23:06:31.105Z,7.60
2024-01-28T23:08:57.615Z,7.61
2024-01-28T23:11:24.118Z,7.58
2024-01-28T23:13:51.405Z,7.64
2024-01-28T23:16:17.999Z,7.61
2024-01-28T23:18:44.663Z,7.58
2024-01-28T23:21:11.160Z,7.57
2024-01-28T23:23:37.661Z,7.59
2024-01-28T23:26:04.293Z,7.55
2024-01-28T23:28:30.724Z,7.54
2024-01-28T23:30:58.166Z,7.51
2024-01-28T23:33:24.789Z,7.51
2024-01-28T23:35:51.435Z,7.54
2024-01-28T23:38:18.995Z,7.56
2024-01-28T23:40:45.606Z,7.58
2024-01-28T23:43:12.130Z,7.56
2024-01-28T23:45:38.727Z,7.52
2024-01-28T23:48:05.465Z,7.52
2024-01-28T23:50:31.940Z,7.54
2024-01-28T23:52:58.375Z,7.50
2024-01-28T23:55:24.889Z,7.48
2024-01-28T23:57:51.429Z,7.50
